createdAt,value
2024-02-12T00:00:20.072Z,1.97
2024-02-12T00:02:48.116Z,1.70
2024-02-12T00:05:15.378Z,1.93
2024-02-12T00:07:44.023Z,2.00
2024-02-12T00:10:14.114Z,2.10
2024-02-12T00:12:41.889Z,1.97
2024-02-12T00:15:12.906Z,1.83
2024-02-12T00:17:41.555Z,1.70
2024-02-12T00:20:12.415Z,2.10
2024-02-12T00:22:42.406Z,2.07
2024-02-12T00:25:12.378Z,1.67
2024-02-12T00:27:39.490Z,1.80
2024-02-12T00:30:09.285Z,1.70
2024-02-12T00:32:37.894Z,1.87
2024-02-12T00:35:06.119Z,1.80
2024-02-12T00:37:36.252Z,1.90
2024-02-12T00:40:10.778Z,1.40
2024-02-12T00:42:37.775Z,1.93
2024-02-12T00:45:04.670Z,1.50
2024-02-12T00:47:31.441Z,1.37
2024-02-12T00:49:58.183Z,1.77
2024-02-12T00:52:24.788Z,1.57
2024-02-12T00:54:53.629Z,1.40
2024-02-12T00:57:22.005Z,1.30
2024-02-12T00:59:48.588Z,1.63
2024-02-12T01:02:15.256Z,1.30
2024-02-12T01:04:41.877Z,1.20
2024-02-12T01:07:10.315Z,1.30
2024-02-12T01:09:36.794Z,1.30
2024-02-12T01:12:04.763Z,1.30
2024-02-12T01:14:31.294Z,1.03
2024-02-12T01:16:57.994Z,1.10
2024-02-12T01:19:24.728Z,1.13
2024-02-12T01:21:51.384Z,0.80
2024-02-12T01:24:18.254Z,1.00
2024-02-12T01:26:45.371Z,1.00
2024-02-12T01:29:12.320Z,1.10
2024-02-12T01:31:39.332Z,0.90
2024-02-12T01:34:06.094Z,1.00
2024-02-12T01:36:34.053Z,1.10
2024-02-12T01:39:00.837Z,1.03
2024-02-12T01:41:27.440Z,1.07
2024-02-12T01:43:53.999Z,1.40
2024-02-12T01:46:23.441Z,1.03
2024-02-12T01:48:50.341Z,1.10
2024-02-12T01:51:17.602Z,0.83
2024-02-12T01:53:45.882Z,1.90
2024-02-12T01:56:12.794Z,1.73
2024-02-12T01:58:42.058Z,1.77
2024-02-12T02:01:14.385Z,1.97
2024-02-12T02:03:42.004Z,1.40
2024-02-12T02:06:08.823Z,1.50
2024-02-12T02:08:40.405Z,1.67
2024-02-12T02:11:08.269Z,1.37
2024-02-12T02:13:35.897Z,1.20
2024-02-12T02:16:02.797Z,1.37
2024-02-12T02:18:32.788Z,0.93
2024-02-12T02:20:59.397Z,1.20
2024-02-12T02:23:26.895Z,1.00
2024-02-12T02:25:53.545Z,1.23
2024-02-12T02:28:23.236Z,1.30
2024-02-12T02:30:49.908Z,1.57
2024-02-12T02:33:18.080Z,1.53
2024-02-12T02:35:45.954Z,2.30
2024-02-12T02:38:13.372Z,1.80
2024-02-12T02:40:40.234Z,1.03
2024-02-12T02:43:07.513Z,1.03
2024-02-12T02:45:35.201Z,2.80
2024-02-12T02:48:03.932Z,2.17
2024-02-12T02:50:33.445Z,1.07
2024-02-12T02:53:01.074Z,1.10
2024-02-12T02:55:28.478Z,0.90
2024-02-12T02:58:03.417Z,0.70
2024-02-12T03:00:31.460Z,1.00
2024-02-12T03:03:01.903Z,0.93
2024-02-12T03:05:28.732Z,0.80
2024-02-12T03:07:55.964Z,0.80
2024-02-12T03:10:22.642Z,0.83
2024-02-12T03:12:49.530Z,0.97
2024-02-12T03:15:16.819Z,0.90
2024-02-12T03:17:45.415Z,1.00
2024-02-12T03:20:13.420Z,0.70
2024-02-12T03:22:41.389Z,0.93
2024-02-12T03:25:09.791Z,0.90
2024-02-12T03:27:36.800Z,0.90
2024-02-12T03:30:06.292Z,0.70
2024-02-12T03:32:33.137Z,0.90
2024-02-12T03:35:00.568Z,0.90
2024-02-12T03:37:28.174Z,0.90
2024-02-12T03:39:54.740Z,0.77
2024-02-12T03:42:27.250Z,0.97
2024-02-12T03:44:54.984Z,0.93
2024-02-12T03:47:39.653Z,0.80
2024-02-12T03:50:26.707Z,1.10
2024-02-12T03:53:11.987Z,0.90
2024-02-12T03:55:57.000Z,0.90
2024-02-12T03:58:42.090Z,0.90
2024-02-12T04:01:08.715Z,0.80
2024-02-12T04:03:35.368Z,0.90
2024-02-12T04:06:05.393Z,0.80
2024-02-12T04:08:33.303Z,0.80
2024-02-12T04:10:59.917Z,0.90
2024-02-12T04:13:27.892Z,0.80
2024-02-12T04:15:56.062Z,0.70
2024-02-12T04:18:22.641Z,0.83
2024-02-12T04:20:50.302Z,0.90
2024-02-12T04:23:17.305Z,0.80
2024-02-12T04:25:43.866Z,0.70
2024-02-12T04:28:12.467Z,0.80
2024-02-12T04:30:38.978Z,0.70
2024-02-12T04:33:05.518Z,0.67
2024-02-12T04:35:32.169Z,0.63
2024-02-12T04:37:58.922Z,0.70
2024-02-12T04:40:25.742Z,0.80
2024-02-12T04:42:55.343Z,0.70
2024-02-12T04:45:23.907Z,0.60
2024-02-12T04:47:52.133Z,0.70
2024-02-12T04:50:19.240Z,0.70
2024-02-12T04:52:46.206Z,0.90
2024-02-12T04:55:12.904Z,0.70
2024-02-12T04:57:39.950Z,0.80
2024-02-12T05:00:11.555Z,0.77
2024-02-12T05:02:44.099Z,0.93
2024-02-12T05:05:12.887Z,0.90
2024-02-12T05:07:39.639Z,0.80
2024-02-12T05:10:07.546Z,0.73
2024-02-12T05:12:34.037Z,0.93
2024-02-12T05:15:00.707Z,0.70
2024-02-12T05:17:43.225Z,0.80
2024-02-12T05:20:28.982Z,0.77
2024-02-12T05:22:55.656Z,0.90
2024-02-12T05:25:22.260Z,0.80
2024-02-12T05:27:48.718Z,0.60
2024-02-12T05:30:15.393Z,0.50
2024-02-12T05:32:41.971Z,0.63
2024-02-12T05:35:11.054Z,0.70
2024-02-12T05:37:37.737Z,0.83
2024-02-12T05:40:08.641Z,0.90
2024-02-12T05:42:35.430Z,2.47
2024-02-12T05:45:01.927Z,2.03
2024-02-12T05:47:28.691Z,3.57
2024-02-12T05:49:56.153Z,1.80
2024-02-12T05:52:22.833Z,1.30
2024-02-12T05:54:49.361Z,1.90
2024-02-12T05:57:15.924Z,1.60
2024-02-12T05:59:42.535Z,1.60
2024-02-12T06:02:09.099Z,1.60
2024-02-12T06:04:35.769Z,1.50
2024-02-12T06:07:02.964Z,2.00
2024-02-12T06:09:30.310Z,2.00
2024-02-12T06:11:57.287Z,1.87
2024-02-12T06:14:23.886Z,3.30
2024-02-12T06:16:50.725Z,2.97
2024-02-12T06:19:17.391Z,2.97
2024-02-12T06:21:46.156Z,2.20
2024-02-12T06:24:12.861Z,1.67
2024-02-12T06:26:39.858Z,1.17
2024-02-12T06:29:06.469Z,1.30
2024-02-12T06:31:33.127Z,1.10
2024-02-12T06:33:59.956Z,0.80
2024-02-12T06:36:26.601Z,0.60
2024-02-12T06:38:53.189Z,1.00
2024-02-12T06:41:21.750Z,1.03
2024-02-12T06:43:48.293Z,0.97
2024-02-12T06:46:14.889Z,1.23
2024-02-12T06:48:42.241Z,1.00
2024-02-12T06:51:12.487Z,0.90
2024-02-12T06:53:39.025Z,1.10
2024-02-12T06:56:06.149Z,0.77
2024-02-12T06:58:32.893Z,0.90
2024-02-12T07:00:59.507Z,0.70
2024-02-12T07:03:26.063Z,1.40
2024-02-12T07:05:52.898Z,1.10
2024-02-12T07:08:21.050Z,1.13
2024-02-12T07:10:48.696Z,0.80
2024-02-12T07:13:16.564Z,1.10
2024-02-12T07:15:43.937Z,1.10
2024-02-12T07:18:10.539Z,0.70
2024-02-12T07:20:37.541Z,1.00
2024-02-12T07:23:04.667Z,0.90
2024-02-12T07:25:31.994Z,0.97
2024-02-12T07:27:58.778Z,1.00
2024-02-12T07:30:25.634Z,0.93
2024-02-12T07:32:52.254Z,1.00
2024-02-12T07:35:18.818Z,0.97
2024-02-12T07:37:45.411Z,1.50
2024-02-12T07:40:12.484Z,1.10
2024-02-12T07:42:40.251Z,1.27
2024-02-12T07:45:14.617Z,0.83
2024-02-12T07:47:43.108Z,1.07
2024-02-12T07:50:10.896Z,0.80
2024-02-12T07:52:39.055Z,1.23
2024-02-12T07:55:06.240Z,1.20
2024-02-12T07:57:32.806Z,1.20
2024-02-12T07:59:59.365Z,1.60
2024-02-12T08:02:26.001Z,1.00
2024-02-12T08:04:53.083Z,0.80
2024-02-12T08:07:22.605Z,0.97
2024-02-12T08:09:51.600Z,1.30
2024-02-12T08:12:19.608Z,0.80
2024-02-12T08:14:46.373Z,1.07
2024-02-12T08:17:13.100Z,1.53
2024-02-12T08:19:55.201Z,2.30
2024-02-12T08:22:25.003Z,1.73
2024-02-12T08:24:52.385Z,1.17
2024-02-12T08:27:21.253Z,1.00
2024-02-12T08:29:49.081Z,1.40
2024-02-12T08:32:15.773Z,1.33
2024-02-12T08:34:42.838Z,1.37
2024-02-12T08:37:12.804Z,0.83
2024-02-12T08:39:40.149Z,1.30
2024-02-12T08:42:06.746Z,1.30
2024-02-12T08:44:33.440Z,1.23
2024-02-12T08:47:03.033Z,0.97
2024-02-12T08:49:29.693Z,1.20
2024-02-12T08:51:57.604Z,0.93
2024-02-12T08:54:24.204Z,0.97
2024-02-12T08:56:50.815Z,1.20
2024-02-12T08:59:20.418Z,1.23
2024-02-12T09:01:47.227Z,1.10
2024-02-12T09:04:13.795Z,1.40
2024-02-12T09:06:40.841Z,1.70
2024-02-12T09:09:07.654Z,1.50
2024-02-12T09:11:34.275Z,1.37
2024-02-12T09:14:01.851Z,1.50
2024-02-12T09:16:28.405Z,1.80
2024-02-12T09:18:55.567Z,1.43
2024-02-12T09:21:22.182Z,1.60
2024-02-12T09:23:48.708Z,3.30
2024-02-12T09:26:18.150Z,2.80
2024-02-12T09:28:44.712Z,2.70
2024-02-12T09:31:11.221Z,2.10
2024-02-12T09:33:38.045Z,2.07
2024-02-12T09:36:05.245Z,2.30
2024-02-12T09:38:31.887Z,2.10
2024-02-12T09:40:59.095Z,2.07
2024-02-12T09:43:27.026Z,2.10
2024-02-12T09:45:55.952Z,3.00
2024-02-12T09:48:22.927Z,3.27
2024-02-12T09:50:51.770Z,2.20
2024-02-12T09:53:22.246Z,1.90
2024-02-12T09:55:49.108Z,2.17
2024-02-12T09:58:22.256Z,2.40
2024-02-12T10:00:49.358Z,2.20
2024-02-12T10:03:16.095Z,2.20
2024-02-12T10:05:44.975Z,2.67
2024-02-12T10:08:22.214Z,2.67
2024-02-12T10:10:50.003Z,2.10
2024-02-12T10:13:17.782Z,2.30
2024-02-12T10:15:45.810Z,2.00
2024-02-12T10:18:15.654Z,2.43
2024-02-12T10:20:42.349Z,2.50
2024-02-12T10:23:12.168Z,2.93
2024-02-12T10:25:42.845Z,3.50
2024-02-12T10:28:09.647Z,2.47
2024-02-12T10:30:36.850Z,2.57
2024-02-12T10:33:08.331Z,2.60
2024-02-12T10:35:42.352Z,3.20
2024-02-12T10:38:12.198Z,3.10
2024-02-12T10:40:56.859Z,3.90
2024-02-12T10:43:25.098Z,2.93
2024-02-12T10:45:54.463Z,2.70
2024-02-12T10:48:22.477Z,2.47
2024-02-12T10:50:49.978Z,2.53
2024-02-12T10:53:20.319Z,2.57
2024-02-12T10:55:47.682Z,3.30
2024-02-12T10:58:15.249Z,2.80
2024-02-12T11:00:49.450Z,2.80
2024-02-12T11:03:35.878Z,3.37
2024-02-12T11:06:04.200Z,3.50
2024-02-12T11:08:30.936Z,3.20
2024-02-12T11:11:01.627Z,4.43
2024-02-12T11:13:40.054Z,3.37
2024-02-12T11:16:13.618Z,3.97
2024-02-12T11:18:40.554Z,3.00
2024-02-12T11:21:09.568Z,3.60
2024-02-12T11:23:36.595Z,3.20
2024-02-12T11:26:07.099Z,3.20
2024-02-12T11:28:33.802Z,2.60
2024-02-12T11:31:00.401Z,3.03
2024-02-12T11:33:27.970Z,3.43
2024-02-12T11:36:06.873Z,3.00
2024-02-12T11:38:34.012Z,2.60
2024-02-12T11:41:06.453Z,3.03
2024-02-12T11:43:34.526Z,3.00
2024-02-12T11:46:04.114Z,2.77
2024-02-12T11:48:31.371Z,2.90
2024-02-12T11:50:58.243Z,2.93
2024-02-12T11:53:26.345Z,2.27
2024-02-12T11:55:53.630Z,3.50
2024-02-12T11:58:20.491Z,2.53
2024-02-12T12:00:47.344Z,2.87
2024-02-12T12:03:14.031Z,3.13
2024-02-12T12:05:42.828Z,3.03
2024-02-12T12:08:11.394Z,2.90
2024-02-12T12:10:38.086Z,2.97
2024-02-12T12:13:05.044Z,3.30
2024-02-12T12:15:32.623Z,3.60
2024-02-12T12:18:00.311Z,3.53
2024-02-12T12:20:32.357Z,3.17
2024-02-12T12:23:01.855Z,3.27
2024-02-12T12:25:28.566Z,3.97
2024-02-12T12:27:56.227Z,3.30
2024-02-12T12:30:23.669Z,3.10
2024-02-12T12:32:52.637Z,3.00
2024-02-12T12:35:20.305Z,3.17
2024-02-12T12:37:47.075Z,4.20
2024-02-12T12:40:20.232Z,2.90
2024-02-12T12:42:50.919Z,2.70
2024-02-12T12:45:18.655Z,2.90
2024-02-12T12:47:46.631Z,3.00
2024-02-12T12:50:16.668Z,2.93
2024-02-12T12:52:44.241Z,2.60
2024-02-12T12:55:15.517Z,2.80
2024-02-12T12:57:44.129Z,2.63
2024-02-12T13:00:20.186Z,2.80
2024-02-12T13:02:47.744Z,2.70
2024-02-12T13:05:14.997Z,3.23
2024-02-12T13:08:15.835Z,2.83
2024-02-12T13:12:59.695Z,2.73
2024-02-12T13:15:27.272Z,3.10
2024-02-12T13:17:54.452Z,3.03
2024-02-12T13:20:25.681Z,2.60
2024-02-12T13:22:58.676Z,2.93
2024-02-12T13:25:33.153Z,2.87
2024-02-12T13:28:00.994Z,3.03
2024-02-12T13:30:33.832Z,2.47
2024-02-12T13:33:11.017Z,2.50
2024-02-12T13:35:39.842Z,2.93
2024-02-12T13:38:12.987Z,2.60
2024-02-12T13:40:40.818Z,2.80
2024-02-12T13:43:10.129Z,3.20
2024-02-12T13:45:40.172Z,2.70
2024-02-12T13:48:09.534Z,3.00
2024-02-12T13:50:36.366Z,2.43
2024-02-12T13:53:07.386Z,2.80
2024-02-12T13:55:34.777Z,2.80
2024-02-12T13:58:01.420Z,2.97
2024-02-12T14:00:46.762Z,3.10
2024-02-12T14:03:15.104Z,2.60
2024-02-12T14:05:43.243Z,2.50
2024-02-12T14:08:11.593Z,2.77
2024-02-12T14:10:38.805Z,2.57
2024-02-12T14:13:05.405Z,3.13
2024-02-12T14:16:03.273Z,2.80
2024-02-12T14:18:18.931Z,2.53
2024-02-12T14:20:45.722Z,2.90
2024-02-12T14:23:12.435Z,3.23
2024-02-12T14:25:39.999Z,3.03
2024-02-12T14:28:07.421Z,3.63
2024-02-12T14:30:35.456Z,3.00
2024-02-12T14:33:03.910Z,2.43
2024-02-12T14:35:36.215Z,5.47
2024-02-12T14:38:03.470Z,7.33
2024-02-12T14:40:30.425Z,5.93
2024-02-12T14:42:57.210Z,5.03
2024-02-12T14:45:30.286Z,3.80
2024-02-12T14:48:07.078Z,3.20
2024-02-12T14:50:34.904Z,4.57
2024-02-12T14:53:02.533Z,6.20
2024-02-12T14:55:29.169Z,4.87
2024-02-12T14:57:56.112Z,4.07
2024-02-12T15:00:25.406Z,3.70
2024-02-12T15:02:54.425Z,3.30
2024-02-12T15:05:21.401Z,3.43
2024-02-12T15:07:53.505Z,3.90
2024-02-12T15:10:22.833Z,4.53
2024-02-12T15:12:50.276Z,4.03
2024-02-12T15:15:20.078Z,4.03
2024-02-12T15:17:53.421Z,5.23
2024-02-12T15:20:23.601Z,22.20
2024-02-12T15:22:51.734Z,23.63
2024-02-12T15:25:20.997Z,25.67
2024-02-12T15:27:49.104Z,23.23
2024-02-12T15:30:16.768Z,21.83
2024-02-12T15:32:43.732Z,9.73
2024-02-12T15:35:16.083Z,4.83
2024-02-12T15:37:44.836Z,3.47
2024-02-12T15:40:12.815Z,2.73
2024-02-12T15:42:43.559Z,4.67
2024-02-12T15:45:11.537Z,3.37
2024-02-12T15:47:40.757Z,2.87
2024-02-12T15:50:12.363Z,2.73
2024-02-12T15:52:42.294Z,5.43
2024-02-12T15:55:12.785Z,5.77
2024-02-12T15:57:43.732Z,6.93
2024-02-12T16:00:15.891Z,4.57
2024-02-12T16:02:44.507Z,6.80
2024-02-12T16:05:53.380Z,5.70
2024-02-12T16:08:20.858Z,4.77
2024-02-12T16:10:47.814Z,4.63
2024-02-12T16:13:14.444Z,3.40
2024-02-12T16:15:41.174Z,2.70
2024-02-12T16:18:09.544Z,2.70
2024-02-12T16:20:36.658Z,3.53
2024-02-12T16:23:03.987Z,2.77
2024-02-12T16:25:31.873Z,3.25
2024-02-12T16:27:59.634Z,2.67
2024-02-12T16:30:27.081Z,2.83
2024-02-12T16:32:55.340Z,3.03
2024-02-12T16:35:22.197Z,4.53
2024-02-12T16:37:48.755Z,7.20
2024-02-12T16:40:15.366Z,9.17
2024-02-12T16:42:43.508Z,7.20
2024-02-12T16:45:10.835Z,3.60
2024-02-12T16:47:41.204Z,3.57
2024-02-12T16:50:09.206Z,4.20
2024-02-12T16:52:36.729Z,4.90
2024-02-12T16:55:04.677Z,3.90
2024-02-12T16:57:33.037Z,4.20
2024-02-12T16:59:59.825Z,5.43
2024-02-12T17:02:29.232Z,5.20
2024-02-12T17:04:56.034Z,3.63
2024-02-12T17:07:25.017Z,3.70
2024-02-12T17:09:51.548Z,3.43
2024-02-12T17:12:20.242Z,4.03
2024-02-12T17:14:47.350Z,9.10
2024-02-12T17:17:15.180Z,14.53
2024-02-12T17:19:42.623Z,11.37
2024-02-12T17:22:10.967Z,6.97
2024-02-12T17:24:37.677Z,5.50
2024-02-12T17:27:05.052Z,46.53
2024-02-12T17:29:31.766Z,43.10
2024-02-12T17:31:58.782Z,38.37
2024-02-12T17:34:26.724Z,33.80
2024-02-12T17:36:53.541Z,15.50
2024-02-12T17:39:20.435Z,10.43
2024-02-12T17:41:47.403Z,7.73
2024-02-12T17:44:15.003Z,7.70
2024-02-12T17:46:42.130Z,6.47
2024-02-12T17:49:08.940Z,8.10
2024-02-12T17:51:35.536Z,25.27
2024-02-12T17:54:02.101Z,24.47
2024-02-12T17:56:28.677Z,29.30
2024-02-12T17:58:58.047Z,34.13
2024-02-12T18:01:28.196Z,60.90
2024-02-12T18:03:54.880Z,43.47
2024-02-12T18:06:22.922Z,26.80
2024-02-12T18:08:50.485Z,20.37
2024-02-12T18:11:17.204Z,21.80
2024-02-12T18:13:44.241Z,20.30
2024-02-12T18:16:10.952Z,23.13
2024-02-12T18:18:37.721Z,19.70
2024-02-12T18:21:04.977Z,18.00
2024-02-12T18:23:31.701Z,15.57
2024-02-12T18:26:00.725Z,15.73
2024-02-12T18:28:27.523Z,16.07
2024-02-12T18:30:54.092Z,23.60
2024-02-12T18:33:20.775Z,34.60
2024-02-12T18:35:48.222Z,29.33
2024-02-12T18:38:14.985Z,26.23
2024-02-12T18:40:41.969Z,13.43
2024-02-12T18:43:08.531Z,12.43
2024-02-12T18:45:35.236Z,10.27
2024-02-12T18:48:02.687Z,9.33
2024-02-12T18:50:30.129Z,9.10
2024-02-12T18:52:56.892Z,8.03
2024-02-12T18:55:23.486Z,8.17
2024-02-12T18:57:50.229Z,7.97
2024-02-12T19:00:17.448Z,7.93
2024-02-12T19:02:45.345Z,9.47
2024-02-12T19:05:12.321Z,10.93
2024-02-12T19:07:40.545Z,13.10
2024-02-12T19:10:12.576Z,9.87
2024-02-12T19:12:42.765Z,8.20
2024-02-12T19:15:15.457Z,9.87
2024-02-12T19:17:43.182Z,11.60
2024-02-12T19:20:12.257Z,11.03
2024-02-12T19:22:40.042Z,10.67
2024-02-12T19:25:07.304Z,10.07
2024-02-12T19:27:39.767Z,9.57
2024-02-12T19:30:11.144Z,7.43
2024-02-12T19:32:39.567Z,6.20
2024-02-12T19:35:11.409Z,5.87
2024-02-12T19:37:41.351Z,5.03
2024-02-12T19:40:15.302Z,5.47
2024-02-12T19:42:45.646Z,4.87
2024-02-12T19:45:13.119Z,5.10
2024-02-12T19:47:40.646Z,5.30
2024-02-12T19:50:08.475Z,4.73
2024-02-12T19:52:35.092Z,4.40
2024-02-12T19:55:01.608Z,4.43
2024-02-12T19:57:30.924Z,4.60
2024-02-12T19:59:58.274Z,4.20
2024-02-12T20:02:24.974Z,4.10
2024-02-12T20:04:51.639Z,4.70
2024-02-12T20:07:18.357Z,4.03
2024-02-12T20:09:44.827Z,4.90
2024-02-12T20:12:11.618Z,4.70
2024-02-12T20:14:38.426Z,5.03
2024-02-12T20:17:07.160Z,5.47
2024-02-12T20:19:34.636Z,4.87
2024-02-12T20:22:01.467Z,4.47
2024-02-12T20:24:28.401Z,4.87
2024-02-12T20:26:54.974Z,4.93
2024-02-12T20:29:21.566Z,4.33
2024-02-12T20:31:48.254Z,5.90
2024-02-12T20:34:14.945Z,5.40
2024-02-12T20:36:42.440Z,8.00
2024-02-12T20:39:10.953Z,7.27
2024-02-12T20:41:38.927Z,8.23
2024-02-12T20:44:06.585Z,7.30
2024-02-12T20:46:33.335Z,7.33
2024-02-12T20:49:00.809Z,6.27
2024-02-12T20:51:27.584Z,5.20
2024-02-12T20:53:54.317Z,5.10
2024-02-12T20:56:20.877Z,4.67
2024-02-12T20:58:47.516Z,3.70
2024-02-12T21:01:15.949Z,4.13
2024-02-12T21:03:42.667Z,3.80
2024-02-12T21:06:10.139Z,4.27
2024-02-12T21:08:37.679Z,3.70
2024-02-12T21:11:04.674Z,4.20
2024-02-12T21:13:36.854Z,3.80
2024-02-12T21:16:06.564Z,3.80
2024-02-12T21:18:33.639Z,3.23
2024-02-12T21:21:00.804Z,2.80
2024-02-12T21:23:29.889Z,3.37
2024-02-12T21:25:56.787Z,3.30
2024-02-12T21:28:24.871Z,2.97
2024-02-12T21:30:51.610Z,3.67
2024-02-12T21:33:18.496Z,4.17
2024-02-12T21:35:48.918Z,6.07
2024-02-12T21:38:15.640Z,5.40
2024-02-12T21:40:44.738Z,4.67
2024-02-12T21:43:11.269Z,7.47
2024-02-12T21:45:37.779Z,4.20
2024-02-12T21:48:05.176Z,4.43
2024-02-12T21:50:37.581Z,3.37
2024-02-12T21:53:04.523Z,4.50
2024-02-12T21:55:31.049Z,3.57
2024-02-12T21:57:59.130Z,2.40
2024-02-12T22:00:25.664Z,4.40
2024-02-12T22:02:52.964Z,4.20
2024-02-12T22:05:21.086Z,6.00
2024-02-12T22:07:47.778Z,4.00
2024-02-12T22:10:14.349Z,4.57
2024-02-12T22:12:43.451Z,3.97
2024-02-12T22:15:11.038Z,3.20
2024-02-12T22:17:40.272Z,3.87
2024-02-12T22:20:07.244Z,3.17
2024-02-12T22:22:33.757Z,4.07
2024-02-12T22:25:00.297Z,4.03
2024-02-12T22:27:26.818Z,4.67
2024-02-12T22:29:53.585Z,3.00
2024-02-12T22:32:20.253Z,3.57
2024-02-12T22:34:47.385Z,3.60
2024-02-12T22:37:14.808Z,3.17
2024-02-12T22:39:41.698Z,3.43
2024-02-12T22:42:11.232Z,3.17
2024-02-12T22:44:38.175Z,2.80
2024-02-12T22:47:05.006Z,2.40
2024-02-12T22:49:31.798Z,2.53
2024-02-12T22:51:59.497Z,2.90
2024-02-12T22:54:26.095Z,2.87
2024-02-12T22:56:52.614Z,3.33
2024-02-12T22:59:19.536Z,3.60
2024-02-12T23:01:46.140Z,4.10
2024-02-12T23:04:13.012Z,2.80
2024-02-12T23:06:39.629Z,3.20
2024-02-12T23:09:07.716Z,3.00
2024-02-12T23:11:34.414Z,2.70
2024-02-12T23:14:00.957Z,2.40
2024-02-12T23:16:27.537Z,2.63
2024-02-12T23:18:54.183Z,2.43
2024-02-12T23:21:20.880Z,2.13
2024-02-12T23:23:48.901Z,2.30
2024-02-12T23:26:15.536Z,2.30
2024-02-12T23:28:42.551Z,2.30
2024-02-12T23:31:09.085Z,2.10
2024-02-12T23:33:36.476Z,2.70
2024-02-12T23:36:06.723Z,2.73
2024-02-12T23:38:36.507Z,2.47
2024-02-12T23:41:03.517Z,3.00
2024-02-12T23:43:30.738Z,2.60
2024-02-12T23:45:57.300Z,2.90
2024-02-12T23:48:24.595Z,2.67
2024-02-12T23:50:51.367Z,2.60
2024-02-12T23:53:18.042Z,2.50
2024-02-12T23:55:47.072Z,3.63
2024-02-12T23:58:13.753Z,2.60
